Time;durP1;ratioP1;P1;durP2;ratioP2;P2;SDS_P1;SDS_P2;PMS_P1;PMS_P2;Temp;Humidity;BMP_temperature;BMP_pressure;BME280_temperature;BME280_humidity;BME280_pressure;Samples;Min_cycle;Max_cycle;Signal;HPM_P1;HPM_P2
2024/02/09 00:00:17;;;;;;;48.90;17.67;;;;;;;7.85;100.00;99845.72;4990547;28;20083;-66
2024/02/09 00:02:43;;;;;;;45.35;16.80;;;;;;;7.89;100.00;99855.69;4988165;28;20057;-67
2024/02/09 00:05:10;;;;;;;36.33;14.73;;;;;;;7.90;100.00;99853.91;4980499;28;20081;-66
2024/02/09 00:07:36;;;;;;;39.95;15.10;;;;;;;7.89;100.00;99852.28;4985933;28;20034;-66
2024/02/09 00:10:01;;;;;;;39.70;15.27;;;;;;;7.88;100.00;99853.22;4984844;28;20386;-66
2024/02/09 00:12:27;;;;;;;37.40;15.00;;;;;;;7.89;100.00;99849.69;4989900;28;20034;-66
2024/02/09 00:14:52;;;;;;;33.42;14.13;;;;;;;7.87;100.00;99851.59;4986807;28;20324;-66
2024/02/09 00:17:17;;;;;;;38.53;16.80;;;;;;;7.88;100.00;99850.63;4983999;28;20049;-67
2024/02/09 00:19:43;;;;;;;33.63;15.23;;;;;;;7.89;100.00;99840.13;4978927;28;20045;-66
2024/02/09 00:22:11;;;;;;;36.38;15.10;;;;;;;7.92;100.00;99849.41;4983045;28;20031;-66
2024/02/09 00:24:42;;;;;;;42.50;15.68;;;;;;;7.91;100.00;99842.56;4980373;28;20026;-66
2024/02/09 00:27:08;;;;;;;30.02;13.15;;;;;;;7.91;100.00;99839.97;4977498;28;20027;-66
2024/02/09 00:29:33;;;;;;;43.80;16.42;;;;;;;7.91;100.00;99832.19;4985224;28;20030;-66
2024/02/09 00:31:59;;;;;;;35.20;13.65;;;;;;;7.90;100.00;99836.56;4988320;28;20031;-66
2024/02/09 00:34:25;;;;;;;39.88;16.27;;;;;;;7.89;100.00;99823.75;4992845;28;20073;-66
2024/02/09 00:36:50;;;;;;;40.22;15.32;;;;;;;7.89;100.00;99832.34;4989454;28;20102;-66
2024/02/09 00:39:19;;;;;;;33.13;14.77;;;;;;;7.89;100.00;99827.16;4988020;28;20034;-66
2024/02/09 00:41:44;;;;;;;40.92;16.45;;;;;;;7.91;100.00;99819.22;4992538;28;20026;-67
2024/02/09 00:44:10;;;;;;;44.65;16.85;;;;;;;7.91;100.00;99821.81;4986729;28;20045;-66
2024/02/09 00:46:42;;;;;;;36.45;16.40;;;;;;;7.91;100.00;99816.63;4986371;28;20044;-66
2024/02/09 00:49:09;;;;;;;42.10;16.63;;;;;;;7.89;100.00;99809.00;4997208;28;20042;-66
2024/02/09 00:51:35;;;;;;;44.83;16.38;;;;;;;7.88;100.00;99812.53;4989843;28;20114;-66
2024/02/09 00:54:01;;;;;;;44.55;19.25;;;;;;;7.88;100.00;99811.72;4992584;28;20462;-66
2024/02/09 00:56:28;;;;;;;51.15;20.83;;;;;;;7.80;100.00;99809.03;4982923;28;20042;-66
2024/02/09 00:58:56;;;;;;;56.97;21.42;;;;;;;7.78;100.00;99806.56;4988978;28;20037;-66
2024/02/09 01:01:22;;;;;;;58.70;22.10;;;;;;;7.74;100.00;99807.00;4988359;28;20510;-66
2024/02/09 01:03:47;;;;;;;51.20;20.60;;;;;;;7.76;100.00;99807.69;4989323;28;20073;-66
2024/02/09 01:06:13;;;;;;;53.42;23.67;;;;;;;7.76;100.00;99808.50;4985618;28;20355;-66
2024/02/09 01:08:39;;;;;;;56.03;24.50;;;;;;;7.73;100.00;99807.97;4988482;28;20034;-66
2024/02/09 01:11:08;;;;;;;57.67;22.17;;;;;;;7.73;100.00;99808.78;4987719;28;20436;-66
2024/02/09 02:46:24;;;;;;;33.22;13.48;;;;;;;7.83;100.00;99681.66;4998170;28;20362;-67
2024/02/09 03:05:26;;;;;;;29.35;14.82;;;;;;;7.89;100.00;99670.72;4992172;28;20064;-66
2024/02/09 03:07:53;;;;;;;42.28;15.88;;;;;;;7.90;100.00;99667.16;4987881;28;20096;-66
2024/02/09 03:10:21;;;;;;;31.73;13.60;;;;;;;7.91;100.00;99666.19;4984155;28;20516;-66
2024/02/09 03:12:46;;;;;;;29.45;13.25;;;;;;;7.91;100.00;99666.19;4983042;28;20046;-66
2024/02/09 03:15:14;;;;;;;38.78;15.15;;;;;;;7.87;100.00;99667.44;4983124;28;20030;-66
2024/02/09 03:17:41;;;;;;;37.03;13.80;;;;;;;7.87;100.00;99664.84;4992695;28;20046;-66
2024/02/09 03:20:07;;;;;;;31.08;13.65;;;;;;;7.86;100.00;99655.44;4985585;28;20141;-66
2024/02/09 03:22:34;;;;;;;42.28;17.05;;;;;;;7.82;100.00;99649.72;4985492;28;20402;-66
2024/02/09 03:25:03;;;;;;;44.55;17.27;;;;;;;7.80;100.00;99645.66;4985635;28;20104;-66
2024/02/09 03:27:33;;;;;;;40.80;15.57;;;;;;;7.77;100.00;99649.34;4984693;28;20042;-67
2024/02/09 03:29:59;;;;;;;35.53;15.98;;;;;;;7.81;100.00;99649.88;4987363;28;20490;-66
2024/02/09 03:32:29;;;;;;;44.67;16.50;;;;;;;7.77;100.00;99648.53;4985700;28;20042;-67
2024/02/09 03:34:55;;;;;;;40.70;16.67;;;;;;;7.76;100.00;99646.91;4987417;28;20045;-67
2024/02/09 03:37:26;;;;;;;43.72;16.65;;;;;;;7.73;100.00;99647.19;4980948;28;20137;-66
2024/02/09 03:39:58;;;;;;;45.95;17.17;;;;;;;7.68;100.00;99639.84;4986142;28;20094;-66
2024/02/09 03:42:23;;;;;;;37.50;17.15;;;;;;;7.65;100.00;99648.75;4987154;28;20042;-66
2024/02/09 03:44:55;;;;;;;40.13;17.08;;;;;;;7.69;100.00;99635.47;4986136;28;20486;-66
2024/02/09 03:47:26;;;;;;;47.08;17.30;;;;;;;7.65;100.00;99625.41;4991325;28;20045;-66
2024/02/09 03:49:52;;;;;;;41.40;15.90;;;;;;;7.66;100.00;99632.22;4987655;28;20413;-66
2024/02/09 03:52:20;;;;;;;42.80;15.77;;;;;;;7.69;100.00;99623.34;4980053;28;20031;-66
2024/02/09 03:54:52;;;;;;;39.47;15.75;;;;;;;7.70;100.00;99630.16;4986714;28;20085;-66
2024/02/09 03:57:21;;;;;;;38.00;15.10;;;;;;;7.71;100.00;99628.38;4983301;28;20026;-66
2024/02/09 03:59:47;;;;;;;47.25;16.40;;;;;;;7.72;100.00;99627.41;4980296;28;20042;-65
2024/02/09 04:02:13;;;;;;;46.08;16.02;;;;;;;7.69;100.00;99631.13;4982684;28;20065;-66
2024/02/09 04:04:38;;;;;;;43.80;16.45;;;;;;;7.69;100.00;99623.34;4986138;28;20134;-66
2024/02/09 04:07:08;;;;;;;39.70;16.88;;;;;;;7.68;100.00;99624.28;4986997;28;20502;-66
2024/02/09 04:09:38;;;;;;;43.35;16.98;;;;;;;7.69;100.00;99630.28;4970095;28;20042;-66
2024/02/09 04:12:04;;;;;;;41.88;17.05;;;;;;;7.70;100.00;99627.56;4984985;28;20109;-66
2024/02/09 04:14:30;;;;;;;39.15;14.60;;;;;;;7.74;100.00;99633.28;4983978;28;20116;-66
2024/02/09 04:16:56;;;;;;;41.88;16.30;;;;;;;7.75;100.00;99632.31;4986254;28;20034;-66
2024/02/09 04:19:23;;;;;;;36.10;15.35;;;;;;;7.76;100.00;99633.94;4986193;28;20034;-66
2024/02/09 04:21:48;;;;;;;38.35;15.27;;;;;;;7.78;100.00;99626.84;4985761;28;20510;-66
2024/02/09 04:24:31;;;;;;;40.17;14.27;;;;;;;7.77;100.00;99628.59;4993745;28;20073;-66
2024/02/09 04:26:57;;;;;;;40.08;16.27;;;;;;;7.76;100.00;99623.56;4986429;28;20054;-66
2024/02/09 04:29:23;;;;;;;36.88;15.93;;;;;;;7.77;100.00;99617.41;4988284;28;20208;-66
2024/02/09 04:31:49;;;;;;;38.90;15.57;;;;;;;7.78;100.00;99622.47;4995907;28;20458;-66
2024/02/09 04:34:16;;;;;;;35.45;14.10;;;;;;;7.80;100.00;99617.13;4994087;28;20041;-66
2024/02/09 04:36:43;;;;;;;35.15;14.82;;;;;;;7.83;100.00;99619.44;4996397;28;20059;-66
2024/02/09 04:39:10;;;;;;;35.65;13.95;;;;;;;7.82;100.00;99622.97;4990247;28;20042;-66
2024/02/09 04:41:37;;;;;;;41.10;15.40;;;;;;;7.82;100.00;99621.22;4983031;28;20153;-66
2024/02/09 04:44:03;;;;;;;47.67;16.20;;;;;;;7.83;100.00;99615.06;4980724;28;20422;-66
2024/02/09 04:46:28;;;;;;;37.22;14.18;;;;;;;7.80;100.00;99611.94;4993142;28;20037;-66
2024/02/09 04:48:54;;;;;;;37.65;15.73;;;;;;;7.75;100.00;99608.97;4988872;28;20038;-66
2024/02/09 04:51:19;;;;;;;34.35;15.80;;;;;;;7.75;100.00;99611.56;4998126;28;20057;-66
2024/02/09 04:53:45;;;;;;;38.38;15.23;;;;;;;7.77;100.00;99613.06;4995347;28;20038;-66
2024/02/09 04:56:11;;;;;;;37.40;15.68;;;;;;;7.80;100.00;99610.16;4991517;28;20046;-67
2024/02/09 04:58:36;;;;;;;38.72;17.48;;;;;;;7.79;100.00;99605.94;4989024;28;20038;-66
2024/02/09 05:01:02;;;;;;;36.75;16.08;;;;;;;7.77;100.00;99613.06;4989536;28;20094;-66
2024/02/09 05:03:27;;;;;;;40.08;15.30;;;;;;;7.76;100.00;99603.63;4978255;28;20046;-66
2024/02/09 05:05:53;;;;;;;43.65;16.50;;;;;;;7.80;100.00;99601.56;4990099;28;20104;-66
2024/02/09 05:08:18;;;;;;;32.42;14.95;;;;;;;7.81;100.00;99600.59;4988678;28;20100;-66
2024/02/09 05:10:46;;;;;;;44.05;15.68;;;;;;;7.81;100.00;99598.00;4996814;28;20057;-66
2024/02/09 05:13:12;;;;;;;32.95;14.93;;;;;;;7.78;100.00;99599.13;4989376;28;20081;-66
2024/02/09 05:15:38;;;;;;;40.42;14.93;;;;;;;7.79;100.00;99592.16;4991578;28;20448;-65
2024/02/09 05:18:03;;;;;;;33.25;14.93;;;;;;;7.78;100.00;99593.13;4985068;28;20113;-66
2024/02/09 05:20:29;;;;;;;33.88;15.70;;;;;;;7.77;100.00;99578.53;4987262;28;20060;-66
2024/02/09 05:22:54;;;;;;;31.13;15.30;;;;;;;7.75;100.00;99583.03;4993182;28;20061;-66
2024/02/09 05:25:22;;;;;;;34.03;15.82;;;;;;;7.74;100.00;99579.63;4972738;28;20034;-66
2024/02/09 05:27:48;;;;;;;29.40;14.23;;;;;;;7.77;100.00;99584.53;4991660;28;20117;-66
2024/02/09 05:30:14;;;;;;;28.00;14.68;;;;;;;7.81;100.00;99579.88;4996846;28;20490;-66
2024/02/09 05:32:41;;;;;;;31.05;14.32;;;;;;;7.84;100.00;99579.56;4988421;28;20042;-66
2024/02/09 05:35:09;;;;;;;28.88;13.93;;;;;;;7.84;100.00;99592.53;4985087;28;20057;-66
2024/02/09 05:37:34;;;;;;;31.17;15.05;;;;;;;7.83;100.00;99593.50;4988843;28;20038;-66
2024/02/09 05:40:00;;;;;;;32.67;14.00;;;;;;;7.85;100.00;99583.78;4986945;28;20514;-66
2024/02/09 05:42:26;;;;;;;32.97;13.50;;;;;;;7.83;100.00;99581.34;4995719;28;20033;-66
2024/02/09 05:44:52;;;;;;;40.60;15.07;;;;;;;7.81;100.00;99578.09;4997218;28;20462;-66
2024/02/09 05:47:17;;;;;;;30.20;13.38;;;;;;;7.81;100.00;99583.28;5004678;28;20066;-66
2024/02/09 05:49:43;;;;;;;34.55;13.63;;;;;;;7.79;100.00;99574.00;4998592;28;20038;-66
2024/02/09 05:52:10;;;;;;;32.97;13.52;;;;;;;7.83;100.00;99586.53;4991938;28;20022;-66
2024/02/09 05:54:36;;;;;;;28.70;13.35;;;;;;;7.85;100.00;99581.19;5005736;28;20338;-66
2024/02/09 05:57:02;;;;;;;41.42;16.17;;;;;;;7.85;100.00;99579.41;4993854;28;20030;-66
2024/02/09 05:59:27;;;;;;;30.23;14.18;;;;;;;7.90;100.00;99584.16;4982590;28;20061;-66
2024/02/09 06:01:52;;;;;;;36.63;16.70;;;;;;;7.89;100.00;99579.94;4992721;28;20181;-67
2024/02/09 06:04:18;;;;;;;34.03;14.98;;;;;;;7.87;100.00;99576.69;4996397;28;20096;-66
2024/02/09 06:06:44;;;;;;;38.28;17.65;;;;;;;7.86;100.00;99580.22;5003831;28;20037;-66
2024/02/09 06:09:10;;;;;;;39.97;15.95;;;;;;;7.88;100.00;99562.75;4995731;28;20041;-66
2024/02/09 06:11:36;;;;;;;31.30;14.40;;;;;;;7.83;100.00;99563.19;4996326;28;20041;-66
2024/02/09 06:14:02;;;;;;;34.60;15.55;;;;;;;7.81;100.00;99567.72;4992637;28;20033;-66
2024/02/09 06:16:28;;;;;;;30.50;14.45;;;;;;;7.81;100.00;99561.72;4989969;28;20425;-66
2024/02/09 06:18:54;;;;;;;37.00;15.05;;;;;;;7.81;100.00;99561.72;4995898;28;20029;-66
2024/02/09 06:21:19;;;;;;;36.58;15.25;;;;;;;7.79;100.00;99563.63;5002606;28;20392;-65
2024/02/09 06:23:46;;;;;;;27.73;13.27;;;;;;;7.81;100.00;99567.72;4994739;28;20461;-66
2024/02/09 06:26:23;;;;;;;29.13;13.48;;;;;;;7.88;100.00;99568.75;4988809;28;20031;-65
2024/02/09 06:28:49;;;;;;;20.52;11.30;;;;;;;8.02;100.00;99575.19;4997290;28;20037;-66
2024/02/09 06:31:23;;;;;;;25.65;11.23;;;;;;;8.07;100.00;99574.72;4973419;28;20394;-66
2024/02/09 06:33:50;;;;;;;31.05;12.80;;;;;;;8.06;100.00;99573.91;4989195;28;20117;-66
2024/02/09 06:36:16;;;;;;;22.73;10.73;;;;;;;8.09;100.00;99573.59;4979856;28;20136;-66
2024/02/09 06:38:42;;;;;;;22.25;10.93;;;;;;;8.12;100.00;99575.91;4990935;28;20053;-66
2024/02/09 06:41:10;;;;;;;27.85;13.25;;;;;;;8.10;100.00;99582.19;4996738;28;20030;-66
2024/02/09 06:43:38;;;;;;;27.90;10.80;;;;;;;8.13;100.00;99582.72;4995929;28;20034;-66
2024/02/09 06:46:03;;;;;;;25.20;12.32;;;;;;;8.11;100.00;99576.88;4975939;28;20394;-66
2024/02/09 06:48:29;;;;;;;26.52;12.13;;;;;;;8.16;100.00;99586.78;4994880;28;20037;-66
2024/02/09 06:50:58;;;;;;;24.90;11.68;;;;;;;8.17;100.00;99586.66;4990009;28;20030;-66
2024/02/09 06:53:24;;;;;;;25.58;11.88;;;;;;;8.19;100.00;99597.69;4993424;28;20038;-67
2024/02/09 06:55:52;;;;;;;30.67;11.95;;;;;;;8.19;100.00;99602.88;4988231;28;20033;-66
2024/02/09 06:58:19;;;;;;;24.85;11.88;;;;;;;8.17;100.00;99620.38;4989378;28;20430;-66
2024/02/09 07:00:45;;;;;;;27.65;13.93;;;;;;;8.20;100.00;99616.66;4987033;28;20026;-67
2024/02/09 07:03:17;;;;;;;23.80;12.60;;;;;;;8.19;100.00;99618.44;4984794;28;20386;-66
2024/02/09 07:05:43;;;;;;;22.58;12.15;;;;;;;8.24;100.00;99618.00;4988520;28;20037;-66
2024/02/09 07:08:08;;;;;;;25.10;9.82;;;;;;;8.31;100.00;99619.84;4983478;28;20038;-67
2024/02/09 07:10:34;;;;;;;20.38;10.55;;;;;;;8.36;100.00;99619.44;4988865;28;20085;-67
2024/02/09 07:12:59;;;;;;;21.40;9.45;;;;;;;8.40;100.00;99623.38;4988344;28;20026;-67
2024/02/09 07:15:25;;;;;;;20.42;9.07;;;;;;;8.46;100.00;99614.16;4984492;28;20054;-66
2024/02/09 07:17:54;;;;;;;18.77;9.05;;;;;;;8.52;100.00;99619.53;4985055;28;20034;-66
2024/02/09 07:20:20;;;;;;;23.25;9.65;;;;;;;8.55;100.00;99614.03;4990990;28;20053;-66
2024/02/09 07:22:46;;;;;;;28.80;8.63;;;;;;;8.55;100.00;99613.22;4987312;28;20042;-66
2024/02/09 07:25:11;;;;;;;18.70;8.80;;;;;;;8.53;100.00;99615.16;4985126;28;20034;-66
2024/02/09 07:27:36;;;;;;;21.98;9.23;;;;;;;8.57;100.00;99609.50;4983518;28;20035;-66
2024/02/09 07:30:02;;;;;;;18.63;8.23;;;;;;;8.58;100.00;99605.13;4981879;28;20030;-66
2024/02/09 07:32:28;;;;;;;15.43;8.23;;;;;;;8.57;100.00;99600.91;4993997;28;20089;-66
2024/02/09 07:34:53;;;;;;;22.35;8.25;;;;;;;8.56;100.00;99601.88;4976209;28;20050;-66
2024/02/09 07:37:21;;;;;;;16.02;8.45;;;;;;;8.57;100.00;99600.91;4983752;28;20069;-66
2024/02/09 07:39:47;;;;;;;18.90;8.63;;;;;;;8.57;100.00;99599.13;4984748;28;20042;-66
2024/02/09 07:42:12;;;;;;;22.98;8.98;;;;;;;8.64;100.00;99607.13;4987540;28;20030;-66
2024/02/09 07:44:39;;;;;;;21.65;9.73;;;;;;;8.67;100.00;99603.41;4981482;28;20608;-66
2024/02/09 07:47:05;;;;;;;24.50;10.02;;;;;;;8.72;100.00;99594.19;4983928;28;20092;-67
2024/02/09 07:49:32;;;;;;;17.67;8.43;;;;;;;8.77;100.00;99597.16;4991236;28;20444;-66
2024/02/09 07:51:59;;;;;;;21.10;8.93;;;;;;;8.79;100.00;99590.00;4992774;28;20046;-66
2024/02/09 07:54:26;;;;;;;15.82;8.73;;;;;;;8.83;100.00;99596.53;4990441;28;20038;-66
2024/02/09 07:56:52;;;;;;;16.23;8.90;;;;;;;8.83;100.00;99593.13;4991363;28;20132;-66
2024/02/09 07:59:20;;;;;;;14.95;8.68;;;;;;;8.82;100.00;99591.50;4989450;28;20113;-66
2024/02/09 08:01:47;;;;;;;20.83;10.77;;;;;;;8.90;100.00;99588.94;4989431;28;20038;-66
2024/02/09 08:04:12;;;;;;;24.85;11.23;;;;;;;8.91;100.00;99593.97;4994259;28;20388;-67
2024/02/09 08:06:38;;;;;;;19.48;10.00;;;;;;;8.89;100.00;99587.31;4990018;28;20035;-66
2024/02/09 08:09:04;;;;;;;17.50;10.50;;;;;;;8.89;100.00;99593.31;4993066;28;20049;-66
2024/02/09 08:11:30;;;;;;;19.40;9.45;;;;;;;8.92;100.00;99589.59;4993882;28;20441;-67
2024/02/09 08:13:57;;;;;;;23.75;9.73;;;;;;;8.93;100.00;99597.25;4988338;28;20039;-66
2024/02/09 08:16:23;;;;;;;14.90;9.30;;;;;;;8.91;100.00;99591.38;4994015;28;20039;-66
2024/02/09 08:18:49;;;;;;;18.08;8.80;;;;;;;8.92;100.00;99587.00;4987772;28;20042;-66
2024/02/09 08:21:17;;;;;;;24.73;8.45;;;;;;;8.96;100.00;99594.34;4991446;28;20097;-67
2024/02/09 08:23:43;;;;;;;20.70;8.65;;;;;;;8.98;100.00;99589.75;4995729;28;20049;-66
2024/02/09 08:26:10;;;;;;;17.35;8.18;;;;;;;9.02;100.00;99590.28;4971703;28;20026;-66
2024/02/09 08:28:43;;;;;;;28.10;7.97;;;;;;;9.01;100.00;99582.63;4992004;28;20053;-66
2024/02/09 08:31:16;;;;;;;13.38;7.43;;;;;;;9.01;100.00;99572.25;4993341;28;20496;-67
2024/02/09 08:33:52;;;;;;;16.58;7.45;;;;;;;9.06;100.00;99581.19;4994995;28;20077;-66
2024/02/09 08:36:21;;;;;;;;;;;;;;;9.04;100.00;99588.34;4991248;28;20786;-66
2024/02/09 08:38:46;;;;;;;16.67;7.07;;;;;;;9.04;100.00;99592.72;4985103;28;19921;-66
2024/02/09 08:41:12;;;;;;;17.95;7.97;;;;;;;9.04;100.00;99582.31;4988820;28;20049;-67
2024/02/09 08:43:37;;;;;;;16.48;6.88;;;;;;;9.05;100.00;99579.56;4994511;28;20034;-66
2024/02/09 08:46:03;;;;;;;15.45;6.57;;;;;;;9.13;100.00;99579.59;4988877;28;20035;-66
2024/02/09 08:48:29;;;;;;;18.17;6.60;;;;;;;9.19;100.00;99584.19;4968868;28;20034;-66
2024/02/09 08:50:55;;;;;;;10.85;5.82;;;;;;;9.21;100.00;99579.63;4989125;28;20077;-67
2024/02/09 08:53:20;;;;;;;15.73;6.95;;;;;;;9.22;100.00;99575.25;4993146;28;20065;-66
2024/02/09 08:55:46;;;;;;;9.77;5.90;;;;;;;9.20;100.00;99577.19;4998542;28;20046;-66
2024/02/09 08:58:11;;;;;;;9.30;5.43;;;;;;;9.16;100.00;99581.06;4987762;28;20029;-66
2024/02/09 09:00:37;;;;;;;14.55;6.05;;;;;;;9.12;100.00;99580.56;4987830;28;20549;-66
2024/02/09 09:03:02;;;;;;;12.05;5.20;;;;;;;9.10;100.00;99586.91;4987715;28;20438;-66
2024/02/09 09:05:28;;;;;;;9.75;4.78;;;;;;;9.11;100.00;99591.13;4980882;28;20030;-66
2024/02/09 09:07:56;;;;;;;10.63;4.70;;;;;;;9.11;100.00;99589.34;4987691;28;20498;-66
2024/02/09 09:10:22;;;;;;;14.48;5.40;;;;;;;9.13;100.00;99586.59;4994805;28;20044;-66
2024/02/09 09:12:47;;;;;;;9.32;4.80;;;;;;;9.12;100.00;99587.56;4991558;28;20125;-66
2024/02/09 09:15:13;;;;;;;15.52;6.10;;;;;;;9.10;100.00;99592.09;4992049;28;20106;-66
2024/02/09 09:17:39;;;;;;;10.57;5.38;;;;;;;9.13;100.00;99586.59;4993837;28;20482;-67
2024/02/09 09:20:06;;;;;;;10.15;5.78;;;;;;;9.16;100.00;99601.88;4991414;28;20506;-67
2024/02/09 09:22:32;;;;;;;13.15;5.53;;;;;;;9.12;100.00;99593.56;5004141;28;20041;-67
2024/02/09 09:24:57;;;;;;;11.93;5.65;;;;;;;9.16;100.00;99596.66;4993106;28;20035;-67
2024/02/09 09:27:23;;;;;;;14.65;5.70;;;;;;;9.18;100.00;99595.53;4991467;28;20030;-67
2024/02/09 09:29:52;;;;;;;15.02;5.78;;;;;;;9.19;100.00;99597.19;4995536;28;20039;-67
2024/02/09 09:32:19;;;;;;;12.90;5.20;;;;;;;9.21;100.00;99595.22;4993175;28;20493;-67
2024/02/09 09:34:45;;;;;;;14.40;6.43;;;;;;;9.23;100.00;99600.28;4999350;28;20038;-67
2024/02/09 09:37:10;;;;;;;10.25;5.03;;;;;;;9.25;100.00;99601.75;4993675;28;20043;-67
2024/02/09 09:39:36;;;;;;;19.38;6.10;;;;;;;9.31;100.00;99602.91;4995142;28;20042;-67
2024/02/09 09:42:01;;;;;;;12.45;4.97;;;;;;;9.37;100.00;99597.09;4982542;28;20043;-67
2024/02/09 09:44:27;;;;;;;13.65;5.45;;;;;;;9.39;100.00;99612.53;4990550;28;20038;-67
2024/02/09 09:46:52;;;;;;;12.30;5.50;;;;;;;9.37;100.00;99607.47;4986120;28;20459;-67
2024/02/09 09:49:19;;;;;;;14.65;5.65;;;;;;;9.38;100.00;99605.69;5006526;28;20364;-67
2024/02/09 09:51:50;;;;;;;12.93;5.82;;;;;;;9.36;100.00;99603.25;4970117;28;20494;-67
2024/02/09 09:54:21;;;;;;;17.02;5.68;;;;;;;9.43;100.00;99603.44;4979876;28;20100;-66
2024/02/09 09:56:49;;;;;;;19.00;5.40;;;;;;;9.45;100.00;99604.88;4997946;28;20046;-67
2024/02/09 09:59:17;;;;;;;13.05;6.70;;;;;;;9.43;100.00;99604.25;4980951;28;20022;-67
2024/02/09 10:01:42;;;;;;;14.95;5.88;;;;;;;9.43;100.00;99608.66;4983841;28;20544;-67
2024/02/09 10:04:08;;;;;;;15.55;6.13;;;;;;;9.47;100.00;99602.13;4980671;28;20043;-68
2024/02/09 10:06:34;;;;;;;18.67;6.68;;;;;;;9.47;100.00;99615.94;4993226;28;20141;-67
2024/02/09 10:08:59;;;;;;;12.88;6.80;;;;;;;9.48;100.00;99607.16;4983727;28;20042;-67
2024/02/09 10:11:25;;;;;;;17.40;7.72;;;;;;;9.52;100.00;99611.09;4982254;28;20035;-67
2024/02/09 10:13:51;;;;;;;17.45;6.78;;;;;;;9.55;100.00;99613.38;4997105;28;20080;-67
2024/02/09 10:16:18;;;;;;;14.43;6.70;;;;;;;9.55;100.00;99613.38;4961568;28;20038;-67
2024/02/09 10:18:43;;;;;;;19.10;8.48;;;;;;;9.53;100.00;99611.91;4981129;28;20029;-67
2024/02/09 10:21:11;;;;;;;13.15;7.85;;;;;;;9.57;100.00;99614.03;4987750;28;20034;-67
2024/02/09 10:23:37;;;;;;;16.70;7.93;;;;;;;9.59;100.00;99609.47;4964496;28;20037;-67
2024/02/09 10:26:06;;;;;;;17.77;7.57;;;;;;;9.58;100.00;99609.63;4996014;28;20034;-67
2024/02/09 10:28:33;;;;;;;24.05;7.97;;;;;;;9.54;100.00;99613.53;4999385;28;20035;-67
2024/02/09 10:30:59;;;;;;;14.68;7.43;;;;;;;9.56;100.00;99606.38;4991124;28;20125;-67
2024/02/09 10:33:25;;;;;;;16.75;7.55;;;;;;;9.57;100.00;99606.22;4991779;28;20042;-67
2024/02/09 10:35:56;;;;;;;15.10;7.80;;;;;;;9.55;100.00;99602.97;4993993;28;20042;-67
2024/02/09 10:38:28;;;;;;;16.88;7.85;;;;;;;9.56;100.00;99607.19;4975125;28;20050;-66
2024/02/09 10:40:55;;;;;;;23.63;10.07;;;;;;;9.59;100.00;99611.28;4994379;28;20050;-67
2024/02/09 10:43:23;;;;;;;17.15;9.07;;;;;;;9.62;100.00;99608.34;5007957;28;20044;-67
2024/02/09 10:45:51;;;;;;;17.35;10.05;;;;;;;9.59;100.00;99598.25;4999426;28;20061;-68
2024/02/09 10:48:21;;;;;;;18.45;7.07;;;;;;;9.59;100.00;99604.28;5007822;28;20018;-67
2024/02/09 10:50:47;;;;;;;15.02;6.60;;;;;;;9.60;100.00;99595.50;4992891;28;20068;-67
2024/02/09 10:53:22;;;;;;;13.85;5.97;;;;;;;9.60;100.00;99595.50;4997560;28;20442;-67
2024/02/09 10:55:59;;;;;;;18.17;6.40;;;;;;;9.58;100.00;99586.22;4995382;28;20049;-67
2024/02/09 10:58:25;;;;;;;13.80;4.60;;;;;;;9.65;100.00;99582.03;4988001;28;20132;-67
2024/02/09 11:00:51;;;;;;;16.30;5.97;;;;;;;9.69;100.00;99588.53;4990391;28;20434;-67
2024/02/09 11:03:18;;;;;;;10.75;5.47;;;;;;;9.74;100.00;99588.06;4994198;28;20026;-67
2024/02/09 11:05:43;;;;;;;11.38;4.80;;;;;;;9.76;100.00;99578.31;4994968;28;20069;-67
2024/02/09 11:08:09;;;;;;;7.55;4.03;;;;;;;9.79;100.00;99578.00;5003348;28;20058;-67
2024/02/09 11:10:35;;;;;;;12.60;4.22;;;;;;;9.75;100.00;99576.69;4999721;28;20078;-67
2024/02/09 11:13:00;;;;;;;14.02;4.88;;;;;;;9.77;100.00;99574.72;4997603;28;20034;-67
2024/02/09 11:15:35;;;;;;;13.82;5.90;;;;;;;9.76;100.00;99568.72;4999188;28;20029;-67
2024/02/09 11:18:01;;;;;;;12.90;5.28;;;;;;;9.73;100.00;99569.03;4994900;28;20033;-67
2024/02/09 11:20:32;;;;;;;8.50;4.05;;;;;;;9.63;100.00;99570.97;4993941;28;20493;-66
2024/02/09 11:23:00;;;;;;;12.75;3.88;;;;;;;9.64;100.00;99564.78;4995900;28;20044;-67
2024/02/09 11:25:27;;;;;;;9.82;4.28;;;;;;;9.70;100.00;99564.16;4994629;28;20041;-66
2024/02/09 11:27:54;;;;;;;11.07;3.25;;;;;;;9.74;100.00;99562.06;5003419;28;20440;-67
2024/02/09 11:30:20;;;;;;;8.63;4.00;;;;;;;9.72;100.00;99554.41;4993644;28;20496;-67
2024/02/09 11:32:48;;;;;;;7.47;3.58;;;;;;;9.65;100.00;99546.44;5004123;28;20508;-68
2024/02/09 11:35:16;;;;;;;6.43;2.83;;;;;;;9.70;100.00;99545.13;4997652;28;20030;-68
2024/02/09 11:37:45;;;;;;;7.75;3.45;;;;;;;9.70;100.00;99537.34;4999594;28;20497;-66
2024/02/09 11:40:16;;;;;;;8.68;3.13;;;;;;;9.72;100.00;99538.00;4988301;28;20034;-67
2024/02/09 11:42:44;;;;;;;8.60;2.47;;;;;;;9.67;100.00;99541.06;4987811;28;20410;-67
2024/02/09 11:45:10;;;;;;;8.18;2.65;;;;;;;9.64;100.00;99529.19;4993797;28;20129;-66
2024/02/09 11:47:38;;;;;;;9.98;3.10;;;;;;;9.67;100.00;99530.66;4990232;28;20116;-66
2024/02/09 11:50:04;;;;;;;6.47;2.22;;;;;;;9.66;100.00;99526.44;4983557;28;20492;-66
2024/02/09 11:52:29;;;;;;;6.25;3.10;;;;;;;9.67;100.00;99527.25;4982566;28;20042;-66
2024/02/09 11:54:55;;;;;;;8.07;2.88;;;;;;;9.67;100.00;99524.66;4985940;28;20026;-66
2024/02/09 11:57:20;;;;;;;12.82;2.92;;;;;;;9.63;100.00;99516.34;4976750;28;20022;-67
2024/02/09 11:59:46;;;;;;;11.35;2.75;;;;;;;9.60;100.00;99496.69;4980848;28;20397;-66
2024/02/09 12:02:13;;;;;;;9.02;2.53;;;;;;;9.64;100.00;99500.59;4975267;28;20035;-66
2024/02/09 12:04:39;;;;;;;14.55;2.80;;;;;;;9.67;100.00;99499.44;4985124;28;20070;-67
2024/02/09 12:07:05;;;;;;;9.43;2.05;;;;;;;9.64;100.00;99505.78;4977170;28;20064;-67
2024/02/09 12:09:30;;;;;;;12.18;2.30;;;;;;;9.66;100.00;99500.44;4980726;28;20062;-66
2024/02/09 12:11:56;;;;;;;12.98;2.35;;;;;;;9.71;100.00;99498.16;4990168;28;20084;-67
2024/02/09 12:14:21;;;;;;;5.97;2.67;;;;;;;9.73;100.00;99496.22;4985044;28;20035;-67
2024/02/09 12:16:47;;;;;;;12.20;2.72;;;;;;;9.69;100.00;99486.28;5003273;28;20030;-67
2024/02/09 12:19:13;;;;;;;10.23;2.95;;;;;;;9.67;100.00;99480.44;4996476;28;20058;-67
2024/02/09 12:21:39;;;;;;;9.82;2.58;;;;;;;9.67;100.00;99486.44;4977201;28;20506;-67
2024/02/09 12:24:06;;;;;;;13.82;3.05;;;;;;;9.69;100.00;99486.28;4977175;28;20486;-67
2024/02/09 12:26:32;;;;;;;11.95;3.60;;;;;;;9.69;100.00;99481.09;4980423;28;20493;-67
2024/02/09 12:28:58;;;;;;;7.50;3.97;;;;;;;9.67;100.00;99477.84;4976690;28;20023;-67
2024/02/09 12:31:25;;;;;;;18.85;3.25;;;;;;;9.64;100.00;99477.19;4994412;28;20116;-67
2024/02/09 12:33:51;;;;;;;6.75;2.95;;;;;;;9.62;100.00;99473.13;4980739;28;20057;-67
2024/02/09 12:36:20;;;;;;;8.60;3.72;;;;;;;9.60;100.00;99465.47;4985583;28;20064;-67
2024/02/09 12:38:50;;;;;;;11.35;3.38;;;;;;;9.59;100.00;99465.63;4979765;28;20047;-67
2024/02/09 12:41:15;;;;;;;6.97;2.72;;;;;;;9.62;100.00;99463.53;4996584;28;20061;-67
2024/02/09 12:43:44;;;;;;;9.93;3.38;;;;;;;9.61;100.00;99463.69;4985005;28;20042;-67
2024/02/09 12:46:10;;;;;;;13.23;3.65;;;;;;;9.60;100.00;99460.28;4985615;28;20447;-67
2024/02/09 12:48:40;;;;;;;20.77;3.97;;;;;;;9.62;100.00;99458.31;4997821;28;20030;-66
2024/02/09 12:51:05;;;;;;;12.38;3.03;;;;;;;9.58;100.00;99462.22;4991630;28;20038;-67
2024/02/09 12:53:33;;;;;;;8.65;3.47;;;;;;;9.60;100.00;99457.66;4991148;28;20105;-66
2024/02/09 12:55:59;;;;;;;7.95;3.67;;;;;;;9.60;100.00;99460.28;4987554;28;20457;-66
2024/02/09 12:58:25;;;;;;;6.75;2.50;;;;;;;9.60;100.00;99444.66;4993175;28;20034;-66
2024/02/09 13:00:52;;;;;;;10.82;3.22;;;;;;;9.60;100.00;99438.66;4987232;28;20100;-67
2024/02/09 13:03:20;;;;;;;11.45;3.25;;;;;;;9.58;100.00;99443.19;4982646;28;20080;-66
2024/02/09 13:05:46;;;;;;;13.95;3.35;;;;;;;9.57;100.00;99439.78;4987704;28;20064;-66
2024/02/09 13:08:12;;;;;;;14.05;3.83;;;;;;;9.58;100.00;99435.41;4990450;28;20447;-67